sensor_id;sensor_type;location;lat;lon;timestamp;pressure;altitude;pressure_sealevel;temperature;humidity
4469;BME280;2247;42.666;23.292;2024-02-21T00:00:05;95001.63;;;11.24;56.43
4469;BME280;2247;42.666;23.292;2024-02-21T00:02:32;94996.91;;;11.26;55.98
4469;BME280;2247;42.666;23.292;2024-02-21T00:04:59;95000.59;;;11.25;56.14
4469;BME280;2247;42.666;23.292;2024-02-21T00:07:26;94992.38;;;11.21;56.03
4469;BME280;2247;42.666;23.292;2024-02-21T00:09:53;94971.22;;;11.01;56.12
4469;BME280;2247;42.666;23.292;2024-02-21T00:12:20;94991.31;;;11.17;56.21
4469;BME280;2247;42.666;23.292;2024-02-21T00:14:47;94998.19;;;11.18;56.05
4469;BME280;2247;42.666;23.292;2024-02-21T00:17:15;94997.16;;;11.19;56.25
4469;BME280;2247;42.666;23.292;2024-02-21T00:19:43;94995.03;;;11.21;55.94
4469;BME280;2247;42.666;23.292;2024-02-21T00:22:10;94990.28;;;11.18;56.33
4469;BME280;2247;42.666;23.292;2024-02-21T00:24:37;94991.06;;;11.19;56.22
4469;BME280;2247;42.666;23.292;2024-02-21T00:27:04;94991.06;;;11.19;56.30
4469;BME280;2247;42.666;23.292;2024-02-21T00:29:31;94993.97;;;11.17;56.20
4469;BME280;2247;42.666;23.292;2024-02-21T00:31:59;94990.00;;;11.15;56.46
4469;BME280;2247;42.666;23.292;2024-02-21T00:34:28;94996.59;;;11.12;56.47
4469;BME280;2247;42.666;23.292;2024-02-21T00:36:55;94993.41;;;11.05;56.66
4469;BME280;2247;42.666;23.292;2024-02-21T00:39:22;94988.91;;;11.05;56.78
4469;BME280;2247;42.666;23.292;2024-02-21T00:41:49;94990.75;;;11.05;56.88
4469;BME280;2247;42.666;23.292;2024-02-21T00:44:16;94987.09;;;11.06;56.59
4469;BME280;2247;42.666;23.292;2024-02-21T00:46:43;94992.59;;;11.04;56.99
4469;BME280;2247;42.666;23.292;2024-02-21T00:49:10;94986.78;;;11.02;57.17
4469;BME280;2247;42.666;23.292;2024-02-21T00:51:38;94978.63;;;10.99;56.83
4469;BME280;2247;42.666;23.292;2024-02-21T00:54:05;94978.88;;;11.02;57.08
4469;BME280;2247;42.666;23.292;2024-02-21T00:56:32;94974.94;;;11.05;56.90
4469;BME280;2247;42.666;23.292;2024-02-21T00:58:59;94969.94;;;11.09;56.74
4469;BME280;2247;42.666;23.292;2024-02-21T01:01:26;94975.75;;;11.11;57.05
4469;BME280;2247;42.666;23.292;2024-02-21T01:03:53;94971.28;;;11.16;56.88
4469;BME280;2247;42.666;23.292;2024-02-21T01:06:20;94973.66;;;11.18;56.64
4469;BME280;2247;42.666;23.292;2024-02-21T01:08:49;94965.75;;;11.18;56.91
4469;BME280;2247;42.666;23.292;2024-02-21T01:11:16;94956.00;;;11.18;56.76
4469;BME280;2247;42.666;23.292;2024-02-21T01:13:44;94959.13;;;11.20;56.73
4469;BME280;2247;42.666;23.292;2024-02-21T01:16:11;94956.25;;;11.17;56.67
4469;BME280;2247;42.666;23.292;2024-02-21T01:18:38;94952.56;;;11.18;56.33
4469;BME280;2247;42.666;23.292;2024-02-21T01:21:06;94952.81;;;11.16;56.15
4469;BME280;2247;42.666;23.292;2024-02-21T01:23:35;94958.34;;;11.15;56.22
4469;BME280;2247;42.666;23.292;2024-02-21T01:26:03;94949.63;;;11.14;56.22
4469;BME280;2247;42.666;23.292;2024-02-21T01:28:33;94944.09;;;11.16;56.50
4469;BME280;2247;42.666;23.292;2024-02-21T01:31:00;94951.50;;;11.19;56.28
4469;BME280;2247;42.666;23.292;2024-02-21T01:33:27;94944.91;;;11.16;56.34
4469;BME280;2247;42.666;23.292;2024-02-21T01:36:00;94949.63;;;11.14;56.25
4469;BME280;2247;42.666;23.292;2024-02-21T01:38:27;94942.78;;;11.13;55.54
4469;BME280;2247;42.666;23.292;2024-02-21T01:40:54;94943.03;;;11.12;55.51
4469;BME280;2247;42.666;23.292;2024-02-21T01:43:23;94948.31;;;11.12;55.93
4469;BME280;2247;42.666;23.292;2024-02-21T01:45:50;94936.44;;;11.14;55.58
4469;BME280;2247;42.666;23.292;2024-02-21T01:48:19;94934.88;;;11.18;55.34
4469;BME280;2247;42.666;23.292;2024-02-21T01:50:47;94948.88;;;11.19;55.52
4469;BME280;2247;42.666;23.292;2024-02-21T01:53:15;94929.06;;;11.21;55.12
4469;BME280;2247;42.666;23.292;2024-02-21T01:55:44;94929.63;;;11.23;55.08
4469;BME280;2247;42.666;23.292;2024-02-21T01:58:12;94924.34;;;11.23;55.13
4469;BME280;2247;42.666;23.292;2024-02-21T02:00:42;94920.13;;;11.22;54.34
4469;BME280;2247;42.666;23.292;2024-02-21T02:03:10;94930.13;;;11.20;54.71
4469;BME280;2247;42.666;23.292;2024-02-21T02:05:43;94932.25;;;11.18;55.07
4469;BME280;2247;42.666;23.292;2024-02-21T02:08:10;94933.56;;;11.16;54.79
4469;BME280;2247;42.666;23.292;2024-02-21T02:10:39;94940.94;;;11.14;55.05
4469;BME280;2247;42.666;23.292;2024-02-21T02:13:06;94925.91;;;11.14;54.99
4469;BME280;2247;42.666;23.292;2024-02-21T02:15:42;94927.22;;;11.12;55.08
4469;BME280;2247;42.666;23.292;2024-02-21T02:18:10;94924.34;;;11.13;55.24
4469;BME280;2247;42.666;23.292;2024-02-21T02:20:38;94944.09;;;11.16;55.38
4469;BME280;2247;42.666;23.292;2024-02-21T02:23:08;94916.94;;;11.10;55.04
4469;BME280;2247;42.666;23.292;2024-02-21T02:25:39;94919.06;;;11.13;55.35
4469;BME280;2247;42.666;23.292;2024-02-21T02:28:06;94916.41;;;11.13;54.84
4469;BME280;2247;42.666;23.292;2024-02-21T02:30:34;94913.50;;;11.15;55.06
4469;BME280;2247;42.666;23.292;2024-02-21T02:33:01;94917.47;;;11.17;55.08
4469;BME280;2247;42.666;23.292;2024-02-21T02:35:28;94921.69;;;11.18;54.63
4469;BME280;2247;42.666;23.292;2024-02-21T02:37:55;94915.09;;;11.21;55.10
4469;BME280;2247;42.666;23.292;2024-02-21T02:40:23;94870.22;;;10.85;54.79
4469;BME280;2247;42.666;23.292;2024-02-21T02:42:51;94906.66;;;11.19;54.97
4469;BME280;2247;42.666;23.292;2024-02-21T02:45:21;94904.81;;;11.19;55.04
4469;BME280;2247;42.666;23.292;2024-02-21T02:47:49;94903.75;;;11.20;55.00
4469;BME280;2247;42.666;23.292;2024-02-21T02:50:16;94903.75;;;11.20;54.55
4469;BME280;2247;42.666;23.292;2024-02-21T02:52:42;94908.50;;;11.18;54.85
4469;BME280;2247;42.666;23.292;2024-02-21T02:55:09;94918.81;;;11.20;54.46
4469;BME280;2247;42.666;23.292;2024-02-21T02:57:37;94925.63;;;11.16;54.81
4469;BME280;2247;42.666;23.292;2024-02-21T03:00:06;94920.13;;;11.17;54.83
4469;BME280;2247;42.666;23.292;2024-02-21T03:02:33;94908.75;;;11.17;54.95
4469;BME280;2247;42.666;23.292;2024-02-21T03:05:00;94913.00;;;11.18;54.72
4469;BME280;2247;42.666;23.292;2024-02-21T03:07:27;94914.84;;;11.17;54.93
4469;BME280;2247;42.666;23.292;2024-02-21T03:09:54;94917.47;;;11.17;54.66
4469;BME280;2247;42.666;23.292;2024-02-21T03:12:21;94919.06;;;11.13;54.87
4469;BME280;2247;42.666;23.292;2024-02-21T03:14:53;94920.38;;;11.11;54.81
4469;BME280;2247;42.666;23.292;2024-02-21T03:17:21;94924.84;;;11.10;55.08
4469;BME280;2247;42.666;23.292;2024-02-21T03:19:48;94931.16;;;11.14;55.01
4469;BME280;2247;42.666;23.292;2024-02-21T03:22:15;94938.28;;;11.14;54.98
4469;BME280;2247;42.666;23.292;2024-02-21T03:24:43;94937.53;;;11.13;54.49
4469;BME280;2247;42.666;23.292;2024-02-21T03:27:10;94931.16;;;11.14;54.56
4469;BME280;2247;42.666;23.292;2024-02-21T03:29:37;94932.75;;;11.15;54.49
4469;BME280;2247;42.666;23.292;2024-02-21T03:32:04;94934.59;;;11.15;54.40
4469;BME280;2247;42.666;23.292;2024-02-21T03:34:32;94934.09;;;11.13;54.83
4469;BME280;2247;42.666;23.292;2024-02-21T03:36:59;94931.16;;;11.14;54.43
4469;BME280;2247;42.666;23.292;2024-02-21T03:39:26;94925.34;;;11.07;54.83
4469;BME280;2247;42.666;23.292;2024-02-21T03:41:53;94919.81;;;11.03;54.64
4469;BME280;2247;42.666;23.292;2024-02-21T03:44:20;94944.38;;;11.19;54.75
4469;BME280;2247;42.666;23.292;2024-02-21T03:46:47;94937.25;;;11.15;54.35
4469;BME280;2247;42.666;23.292;2024-02-21T03:49:14;94945.44;;;11.18;54.58
4469;BME280;2247;42.666;23.292;2024-02-21T03:51:42;94947.03;;;11.19;54.12
4469;BME280;2247;42.666;23.292;2024-02-21T03:54:09;94939.91;;;11.20;54.48
4469;BME280;2247;42.666;23.292;2024-02-21T03:56:37;94936.72;;;11.13;54.42
4469;BME280;2247;42.666;23.292;2024-02-21T03:59:05;94943.03;;;11.12;54.44
4469;BME280;2247;42.666;23.292;2024-02-21T04:01:32;94945.44;;;11.13;54.90
4469;BME280;2247;42.666;23.292;2024-02-21T04:03:59;94948.59;;;11.15;54.84
4469;BME280;2247;42.666;23.292;2024-02-21T04:06:26;94938.03;;;11.10;55.07
4469;BME280;2247;42.666;23.292;2024-02-21T04:08:54;94949.09;;;11.07;55.39
4469;BME280;2247;42.666;23.292;2024-02-21T04:11:21;94942.75;;;11.08;55.23
4469;BME280;2247;42.666;23.292;2024-02-21T04:13:48;94907.88;;;10.86;55.12
4469;BME280;2247;42.666;23.292;2024-02-21T04:16:17;94935.91;;;11.07;55.01
4469;BME280;2247;42.666;23.292;2024-02-21T04:18:44;94936.44;;;11.09;55.25
4469;BME280;2247;42.666;23.292;2024-02-21T04:21:14;94936.69;;;11.07;55.33
4469;BME280;2247;42.666;23.292;2024-02-21T04:23:41;94939.88;;;11.10;54.96
4469;BME280;2247;42.666;23.292;2024-02-21T04:26:09;94941.97;;;11.07;54.96
4469;BME280;2247;42.666;23.292;2024-02-21T04:28:36;94935.63;;;11.03;55.09
4469;BME280;2247;42.666;23.292;2024-02-21T04:31:03;94927.19;;;11.01;54.73
4469;BME280;2247;42.666;23.292;2024-02-21T04:33:30;94939.88;;;11.10;54.91
4469;BME280;2247;42.666;23.292;2024-02-21T04:35:57;94935.09;;;11.06;54.82
4469;BME280;2247;42.666;23.292;2024-02-21T04:38:26;94939.31;;;11.07;55.11
4469;BME280;2247;42.666;23.292;2024-02-21T04:40:54;94949.09;;;11.07;54.78
4469;BME280;2247;42.666;23.292;2024-02-21T04:43:25;94947.53;;;11.11;54.84
4469;BME280;2247;42.666;23.292;2024-02-21T04:45:52;94943.81;;;11.02;54.86
4469;BME280;2247;42.666;23.292;2024-02-21T04:48:19;94928.78;;;10.97;55.00
4469;BME280;2247;42.666;23.292;2024-02-21T04:50:46;94946.19;;;10.98;55.23
4469;BME280;2247;42.666;23.292;2024-02-21T04:53:15;94954.09;;;10.98;55.52
4469;BME280;2247;42.666;23.292;2024-02-21T04:55:41;94946.44;;;10.97;55.39
4469;BME280;2247;42.666;23.292;2024-02-21T04:58:08;94944.84;;;10.96;55.41
4469;BME280;2247;42.666;23.292;2024-02-21T05:00:37;94942.19;;;10.96;55.46
4469;BME280;2247;42.666;23.292;2024-02-21T05:03:04;94940.88;;;10.93;55.60
4469;BME280;2247;42.666;23.292;2024-02-21T05:05:31;94950.13;;;10.96;55.25
4469;BME280;2247;42.666;23.292;2024-02-21T05:08:01;94927.38;;;10.80;55.08
4469;BME280;2247;42.666;23.292;2024-02-21T05:10:29;94938.75;;;10.85;55.43
4469;BME280;2247;42.666;23.292;2024-02-21T05:12:57;94907.00;;;10.60;55.31
4469;BME280;2247;42.666;23.292;2024-02-21T05:15:25;94947.47;;;10.91;55.03
4469;BME280;2247;42.666;23.292;2024-02-21T05:17:55;94947.41;;;10.76;55.16
4469;BME280;2247;42.666;23.292;2024-02-21T05:20:22;94941.09;;;10.87;54.77
4469;BME280;2247;42.666;23.292;2024-02-21T05:22:49;94939.81;;;10.84;54.58
4469;BME280;2247;42.666;23.292;2024-02-21T05:25:16;94956.97;;;10.97;54.54
4469;BME280;2247;42.666;23.292;2024-02-21T05:27:43;94956.97;;;10.97;54.58
4469;BME280;2247;42.666;23.292;2024-02-21T05:30:12;94951.69;;;10.97;54.32
4469;BME280;2247;42.666;23.292;2024-02-21T05:32:39;94954.34;;;11.02;53.83
4469;BME280;2247;42.666;23.292;2024-02-21T05:35:09;94948.81;;;10.98;53.90
4469;BME280;2247;42.666;23.292;2024-02-21T05:37:35;94953.56;;;11.01;53.79
4469;BME280;2247;42.666;23.292;2024-02-21T05:40:03;94961.22;;;11.03;53.80
4469;BME280;2247;42.666;23.292;2024-02-21T05:42:30;94954.91;;;11.04;53.88
4469;BME280;2247;42.666;23.292;2024-02-21T05:44:56;94959.91;;;11.05;53.50
4469;BME280;2247;42.666;23.292;2024-02-21T05:47:23;94957.53;;;11.09;53.20
4469;BME280;2247;42.666;23.292;2024-02-21T05:49:50;94961.75;;;11.10;53.18
4469;BME280;2247;42.666;23.292;2024-02-21T05:52:22;94963.91;;;11.13;52.95
4469;BME280;2247;42.666;23.292;2024-02-21T05:54:49;94970.47;;;11.16;53.11
4469;BME280;2247;42.666;23.292;2024-02-21T05:57:17;94971.03;;;11.18;52.98
4469;BME280;2247;42.666;23.292;2024-02-21T05:59:44;94978.94;;;11.23;52.58
4469;BME280;2247;42.666;23.292;2024-02-21T06:02:11;94975.00;;;11.25;52.54
4469;BME280;2247;42.666;23.292;2024-02-21T06:04:38;94984.50;;;11.31;52.36
4469;BME280;2247;42.666;23.292;2024-02-21T06:07:05;94977.41;;;11.37;52.48
4469;BME280;2247;42.666;23.292;2024-02-21T06:09:34;94977.94;;;11.39;52.23
4469;BME280;2247;42.666;23.292;2024-02-21T06:12:01;94985.59;;;11.45;52.00
4469;BME280;2247;42.666;23.292;2024-02-21T06:14:28;94995.09;;;11.52;51.79
4469;BME280;2247;42.666;23.292;2024-02-21T06:16:55;94991.44;;;11.53;51.84
4469;BME280;2247;42.666;23.292;2024-02-21T06:19:22;94993.53;;;11.56;51.94
4469;BME280;2247;42.666;23.292;2024-02-21T06:21:49;94991.97;;;11.65;52.20
4469;BME280;2247;42.666;23.292;2024-02-21T06:24:15;94996.72;;;11.73;51.76
4469;BME280;2247;42.666;23.292;2024-02-21T06:26:44;94989.63;;;11.78;51.42
4469;BME280;2247;42.666;23.292;2024-02-21T06:29:11;94995.97;;;11.82;51.01
4469;BME280;2247;42.666;23.292;2024-02-21T06:31:39;94996.75;;;11.83;50.84
4469;BME280;2247;42.666;23.292;2024-02-21T06:34:06;95001.53;;;11.86;51.39
4469;BME280;2247;42.666;23.292;2024-02-21T06:36:33;94984.09;;;11.75;51.10
4469;BME280;2247;42.666;23.292;2024-02-21T06:39:00;95004.72;;;11.88;50.82
4469;BME280;2247;42.666;23.292;2024-02-21T06:41:27;95002.03;;;11.83;51.17
4469;BME280;2247;42.666;23.292;2024-02-21T06:43:57;95013.13;;;11.90;51.25
4469;BME280;2247;42.666;23.292;2024-02-21T06:46:24;95010.50;;;12.00;50.83
4469;BME280;2247;42.666;23.292;2024-02-21T06:48:51;94993.34;;;11.88;51.06
4469;BME280;2247;42.666;23.292;2024-02-21T06:51:18;95016.34;;;12.02;51.29
4469;BME280;2247;42.666;23.292;2024-02-21T06:53:45;95029.78;;;12.06;50.98
4469;BME280;2247;42.666;23.292;2024-02-21T06:56:12;95020.81;;;12.07;51.28
4469;BME280;2247;42.666;23.292;2024-02-21T06:58:39;95024.75;;;12.04;51.26
4469;BME280;2247;42.666;23.292;2024-02-21T07:01:08;95013.41;;;11.99;51.67
4469;BME280;2247;42.666;23.292;2024-02-21T07:03:35;94998.09;;;11.91;51.88
4469;BME280;2247;42.666;23.292;2024-02-21T07:06:03;95022.16;;;12.09;51.31
4469;BME280;2247;42.666;23.292;2024-02-21T07:08:30;95016.31;;;12.12;51.35
4469;BME280;2247;42.666;23.292;2024-02-21T07:10:57;95025.31;;;12.11;52.35
4469;BME280;2247;42.666;23.292;2024-02-21T07:13:23;95026.34;;;12.05;52.01
4469;BME280;2247;42.666;23.292;2024-02-21T07:15:50;95025.31;;;12.06;51.70
4469;BME280;2247;42.666;23.292;2024-02-21T07:18:19;95019.50;;;11.94;52.33
4469;BME280;2247;42.666;23.292;2024-02-21T07:20:46;95023.69;;;11.90;52.47
4469;BME280;2247;42.666;23.292;2024-02-21T07:23:13;95025.84;;;11.88;52.61
4469;BME280;2247;42.666;23.292;2024-02-21T07:25:40;95023.19;;;11.88;52.67
4469;BME280;2247;42.666;23.292;2024-02-21T07:28:07;95028.97;;;11.90;52.65
4469;BME280;2247;42.666;23.292;2024-02-21T07:30:34;95030.84;;;11.95;52.67
4469;BME280;2247;42.666;23.292;2024-02-21T07:33:02;95030.06;;;11.94;52.24
4469;BME280;2247;42.666;23.292;2024-02-21T07:35:31;95033.75;;;11.93;52.36
4469;BME280;2247;42.666;23.292;2024-02-21T07:37:58;95014.72;;;11.91;52.70
4469;BME280;2247;42.666;23.292;2024-02-21T07:40:25;95034.28;;;12.00;53.03
4469;BME280;2247;42.666;23.292;2024-02-21T07:42:52;95036.41;;;12.08;52.55
4469;BME280;2247;42.666;23.292;2024-02-21T07:45:19;95022.69;;;12.16;52.39
4469;BME280;2247;42.666;23.292;2024-02-21T07:47:49;95021.09;;;12.15;51.95
4469;BME280;2247;42.666;23.292;2024-02-21T07:50:16;95025.03;;;12.13;51.78
4469;BME280;2247;42.666;23.292;2024-02-21T07:52:44;95012.63;;;12.18;51.70
4469;BME280;2247;42.666;23.292;2024-02-21T07:55:12;95021.88;;;12.16;51.92
4469;BME280;2247;42.666;23.292;2024-02-21T07:57:39;95014.75;;;12.21;52.14
4469;BME280;2247;42.666;23.292;2024-02-21T08:00:07;95022.41;;;12.23;51.97
4469;BME280;2247;42.666;23.292;2024-02-21T08:02:37;95007.84;;;12.26;51.64
4469;BME280;2247;42.666;23.292;2024-02-21T08:05:05;95014.19;;;12.35;51.50
4469;BME280;2247;42.666;23.292;2024-02-21T08:07:32;95020.00;;;12.42;51.11
4469;BME280;2247;42.666;23.292;2024-02-21T08:12:38;95012.09;;;12.37;51.50
4469;BME280;2247;42.666;23.292;2024-02-21T08:15:10;95010.25;;;12.42;51.63
4469;BME280;2247;42.666;23.292;2024-02-21T08:17:38;95015.75;;;12.61;51.56
4469;BME280;2247;42.666;23.292;2024-02-21T08:20:06;95016.78;;;12.70;51.24
4469;BME280;2247;42.666;23.292;2024-02-21T08:22:33;95000.88;;;12.80;50.49
4469;BME280;2247;42.666;23.292;2024-02-21T08:25:00;95014.88;;;12.96;50.21
4469;BME280;2247;42.666;23.292;2024-02-21T08:27:27;95014.06;;;13.06;49.79
4469;BME280;2247;42.666;23.292;2024-02-21T08:29:56;95008.75;;;13.11;49.18
4469;BME280;2247;42.666;23.292;2024-02-21T08:32:22;95006.63;;;13.18;48.82
4469;BME280;2247;42.666;23.292;2024-02-21T08:34:49;95007.41;;;13.18;49.03
4469;BME280;2247;42.666;23.292;2024-02-21T08:37:16;95001.84;;;13.10;47.83
4469;BME280;2247;42.666;23.292;2024-02-21T08:39:43;95010.53;;;13.30;47.97
4469;BME280;2247;42.666;23.292;2024-02-21T08:42:10;94980.69;;;13.15;48.17
4469;BME280;2247;42.666;23.292;2024-02-21T08:44:39;94999.59;;;13.42;47.70
4469;BME280;2247;42.666;23.292;2024-02-21T08:47:08;95007.84;;;13.40;47.36
4469;BME280;2247;42.666;23.292;2024-02-21T08:49:35;95009.69;;;13.35;47.21
4469;BME280;2247;42.666;23.292;2024-02-21T08:52:03;95007.34;;;13.33;47.60
4469;BME280;2247;42.666;23.292;2024-02-21T08:54:30;95008.66;;;13.36;47.12
4469;BME280;2247;42.666;23.292;2024-02-21T08:56:58;95006.03;;;13.31;47.10
4469;BME280;2247;42.666;23.292;2024-02-21T08:59:25;95011.84;;;13.28;46.86
4469;BME280;2247;42.666;23.292;2024-02-21T09:01:53;95010.03;;;13.23;47.77
4469;BME280;2247;42.666;23.292;2024-02-21T09:04:21;95023.03;;;13.15;47.65
4469;BME280;2247;42.666;23.292;2024-02-21T09:06:48;95017.47;;;13.16;47.84
4469;BME280;2247;42.666;23.292;2024-02-21T09:09:15;95012.72;;;13.18;47.62
4469;BME280;2247;42.666;23.292;2024-02-21T09:11:42;95023.53;;;13.22;47.62
4469;BME280;2247;42.666;23.292;2024-02-21T09:14:09;95020.88;;;13.27;47.71
4469;BME280;2247;42.666;23.292;2024-02-21T09:16:37;95024.59;;;13.26;48.07
4469;BME280;2247;42.666;23.292;2024-02-21T09:19:04;95013.75;;;13.22;47.63
4469;BME280;2247;42.666;23.292;2024-02-21T09:21:32;95015.28;;;13.33;47.84
4469;BME280;2247;42.666;23.292;2024-02-21T09:23:59;95013.91;;;13.46;47.48
4469;BME280;2247;42.666;23.292;2024-02-21T09:26:26;95019.13;;;13.56;47.36
4469;BME280;2247;42.666;23.292;2024-02-21T09:28:53;94999.25;;;13.59;46.83
4469;BME280;2247;42.666;23.292;2024-02-21T09:31:20;95012.16;;;13.70;47.36
4469;BME280;2247;42.666;23.292;2024-02-21T09:33:47;95011.63;;;13.73;47.33
4469;BME280;2247;42.666;23.292;2024-02-21T09:36:14;95015.81;;;13.79;47.71
4469;BME280;2247;42.666;23.292;2024-02-21T09:38:43;95005.72;;;13.87;47.60
4469;BME280;2247;42.666;23.292;2024-02-21T09:41:15;95006.25;;;13.89;47.85
4469;BME280;2247;42.666;23.292;2024-02-21T09:43:43;95014.94;;;13.94;47.71
4469;BME280;2247;42.666;23.292;2024-02-21T09:46:16;95011.53;;;13.89;47.29
4469;BME280;2247;42.666;23.292;2024-02-21T09:48:58;95013.88;;;13.90;47.59
4469;BME280;2247;42.666;23.292;2024-02-21T09:51:32;95015.56;;;13.81;47.55
4469;BME280;2247;42.666;23.292;2024-02-21T09:54:03;95008.91;;;13.84;47.01
4469;BME280;2247;42.666;23.292;2024-02-21T09:56:30;95012.66;;;13.77;47.25
4469;BME280;2247;42.666;23.292;2024-02-21T09:58:58;95009.25;;;13.72;47.29
4469;BME280;2247;42.666;23.292;2024-02-21T10:01:26;95014.28;;;13.73;47.57
4469;BME280;2247;42.666;23.292;2024-02-21T10:03:53;95017.75;;;13.69;47.32
4469;BME280;2247;42.666;23.292;2024-02-21T10:06:20;95010.63;;;13.64;47.51
4469;BME280;2247;42.666;23.292;2024-02-21T10:08:52;95010.84;;;13.73;47.63
4469;BME280;2247;42.666;23.292;2024-02-21T10:11:23;94998.75;;;13.57;46.79
4469;BME280;2247;42.666;23.292;2024-02-21T10:13:50;95008.91;;;13.84;45.14
4469;BME280;2247;42.666;23.292;2024-02-21T10:16:17;95008.38;;;13.87;44.42
4469;BME280;2247;42.666;23.292;2024-02-21T10:18:44;94996.69;;;13.88;44.64
4469;BME280;2247;42.666;23.292;2024-02-21T10:21:11;94994.06;;;13.88;44.91
4469;BME280;2247;42.666;23.292;2024-02-21T10:23:44;94989.81;;;13.87;44.59
4469;BME280;2247;42.666;23.292;2024-02-21T10:26:11;94987.75;;;13.78;45.25
4469;BME280;2247;42.666;23.292;2024-02-21T10:28:40;94984.56;;;13.82;45.13
4469;BME280;2247;42.666;23.292;2024-02-21T10:31:09;94982.97;;;13.80;45.16
4469;BME280;2247;42.666;23.292;2024-02-21T10:33:37;94930.69;;;13.57;44.98
4469;BME280;2247;42.666;23.292;2024-02-21T10:36:07;94963.13;;;13.78;44.51
4469;BME280;2247;42.666;23.292;2024-02-21T10:38:36;94964.19;;;13.77;44.41
4469;BME280;2247;42.666;23.292;2024-02-21T10:41:04;94959.94;;;13.81;44.54
4469;BME280;2247;42.666;23.292;2024-02-21T10:43:38;94917.38;;;13.67;44.06
4469;BME280;2247;42.666;23.292;2024-02-21T10:46:07;94949.25;;;13.91;43.87
4469;BME280;2247;42.666;23.292;2024-02-21T10:48:42;94936.78;;;13.92;43.76
4469;BME280;2247;42.666;23.292;2024-02-21T10:51:15;94925.59;;;14.00;42.93
4469;BME280;2247;42.666;23.292;2024-02-21T10:53:50;94917.41;;;13.96;42.54
4469;BME280;2247;42.666;23.292;2024-02-21T10:56:22;94911.78;;;14.03;42.75
4469;BME280;2247;42.666;23.292;2024-02-21T10:58:53;94877.28;;;13.79;42.27
4469;BME280;2247;42.666;23.292;2024-02-21T11:01:22;94919.13;;;14.11;46.43
4469;BME280;2247;42.666;23.292;2024-02-21T11:03:53;94892.44;;;14.02;47.27
4469;BME280;2247;42.666;23.292;2024-02-21T11:06:21;94911.81;;;14.27;43.79
4469;BME280;2247;42.666;23.292;2024-02-21T11:09:00;94903.34;;;14.25;42.82
4469;BME280;2247;42.666;23.292;2024-02-21T11:11:28;94900.22;;;14.23;42.00
4469;BME280;2247;42.666;23.292;2024-02-21T11:14:04;94875.75;;;14.02;41.89
4469;BME280;2247;42.666;23.292;2024-02-21T11:16:37;94891.59;;;14.07;41.59
4469;BME280;2247;42.666;23.292;2024-02-21T11:19:08;94904.25;;;14.15;41.63
4469;BME280;2247;42.666;23.292;2024-02-21T11:21:36;94882.91;;;14.01;41.35
4469;BME280;2247;42.666;23.292;2024-02-21T11:24:04;94820.00;;;13.59;41.83
4469;BME280;2247;42.666;23.292;2024-02-21T11:26:31;94886.38;;;14.02;41.22
4469;BME280;2247;42.666;23.292;2024-02-21T11:28:59;94896.25;;;14.20;41.34
4469;BME280;2247;42.666;23.292;2024-02-21T11:31:39;94888.53;;;14.24;41.12
4469;BME280;2247;42.666;23.292;2024-02-21T11:34:10;94889.28;;;14.29;40.84
4469;BME280;2247;42.666;23.292;2024-02-21T11:36:46;94891.97;;;14.24;40.68
4469;BME280;2247;42.666;23.292;2024-02-21T11:39:18;94882.13;;;14.25;40.58
4469;BME280;2247;42.666;23.292;2024-02-21T11:41:47;94881.94;;;14.21;40.35
4469;BME280;2247;42.666;23.292;2024-02-21T11:44:14;94885.66;;;14.20;39.44
4469;BME280;2247;42.666;23.292;2024-02-21T11:46:43;94882.00;;;14.11;39.65
4469;BME280;2247;42.666;23.292;2024-02-21T11:49:12;94882.31;;;14.09;39.88
4469;BME280;2247;42.666;23.292;2024-02-21T11:51:39;94872.72;;;14.13;39.72
4469;BME280;2247;42.666;23.292;2024-02-21T11:54:06;94864.56;;;14.10;40.33
4469;BME280;2247;42.666;23.292;2024-02-21T11:56:35;94870.41;;;14.07;40.47
4469;BME280;2247;42.666;23.292;2024-02-21T11:59:02;94878.88;;;14.09;40.69
4469;BME280;2247;42.666;23.292;2024-02-21T12:01:28;94873.25;;;14.15;40.23
4469;BME280;2247;42.666;23.292;2024-02-21T12:03:57;94872.91;;;14.22;40.58
4469;BME280;2247;42.666;23.292;2024-02-21T12:06:25;94873.09;;;14.31;40.33
4469;BME280;2247;42.666;23.292;2024-02-21T12:08:57;94867.47;;;14.32;40.17
4469;BME280;2247;42.666;23.292;2024-02-21T12:11:24;94870.09;;;14.37;40.13
4469;BME280;2247;42.666;23.292;2024-02-21T12:14:00;94865.88;;;14.36;40.06
4469;BME280;2247;42.666;23.292;2024-02-21T12:16:29;94861.69;;;14.30;40.50
4469;BME280;2247;42.666;23.292;2024-02-21T12:18:58;94866.16;;;14.35;40.28
4469;BME280;2247;42.666;23.292;2024-02-21T12:21:26;94851.13;;;14.25;40.91
4469;BME280;2247;42.666;23.292;2024-02-21T12:23:54;94857.56;;;14.19;41.00
4469;BME280;2247;42.666;23.292;2024-02-21T12:26:21;94839.72;;;14.01;41.08
4469;BME280;2247;42.666;23.292;2024-02-21T12:28:48;94851.91;;;14.02;41.40
4469;BME280;2247;42.666;23.292;2024-02-21T12:31:15;94847.16;;;13.99;40.94
4469;BME280;2247;42.666;23.292;2024-02-21T12:33:43;94855.13;;;13.99;41.02
4469;BME280;2247;42.666;23.292;2024-02-21T12:36:11;94846.97;;;13.90;41.34
4469;BME280;2247;42.666;23.292;2024-02-21T12:38:39;94856.50;;;13.91;41.39
4469;BME280;2247;42.666;23.292;2024-02-21T12:41:05;94844.09;;;13.87;40.94
4469;BME280;2247;42.666;23.292;2024-02-21T12:43:33;94849.41;;;13.87;41.17
4469;BME280;2247;42.666;23.292;2024-02-21T12:46:01;94835.19;;;13.77;41.05
4469;BME280;2247;42.666;23.292;2024-02-21T12:48:28;94837.81;;;13.83;41.16
4469;BME280;2247;42.666;23.292;2024-02-21T12:50:55;94836.25;;;13.76;40.68
4469;BME280;2247;42.666;23.292;2024-02-21T12:53:23;94841.41;;;13.92;40.80
4469;BME280;2247;42.666;23.292;2024-02-21T12:55:50;94826.44;;;13.77;40.98
4469;BME280;2247;42.666;23.292;2024-02-21T12:58:17;94833.84;;;13.80;41.40
4469;BME280;2247;42.666;23.292;2024-02-21T13:00:44;94827.41;;;13.86;41.00
4469;BME280;2247;42.666;23.292;2024-02-21T13:03:12;94837.00;;;13.82;41.11
4469;BME280;2247;42.666;23.292;2024-02-21T13:05:39;94822.44;;;13.79;41.48
4469;BME280;2247;42.666;23.292;2024-02-21T13:08:06;94823.47;;;13.84;42.66
4469;BME280;2247;42.666;23.292;2024-02-21T13:10:35;94823.47;;;13.84;43.02
4469;BME280;2247;42.666;23.292;2024-02-21T13:13:02;94817.63;;;13.87;43.92
4469;BME280;2247;42.666;23.292;2024-02-21T13:15:29;94811.00;;;13.84;44.43